Time;durP1;ratioP1;P1;durP2;ratioP2;P2;SDS_P1;SDS_P2;PMS_P1;PMS_P2;Temp;Humidity;BMP_temperature;BMP_pressure;BME280_temperature;BME280_humidity;BME280_pressure;Samples;Min_cycle;Max_cycle;Signal;HPM_P1;HPM_P2
2023/01/22 00:01:25;;;;;;;82.90;53.50;;;3.30;1.00;;;;;;4914755;29;20050;-77
2023/01/22 00:03:58;;;;;;;86.55;56.33;;;3.20;1.00;;;;;;4916011;29;20051;-78
2023/01/22 00:06:26;;;;;;;91.63;60.40;;;3.30;99.90;;;;;;4899257;29;20508;-77
2023/01/22 00:08:55;;;;;;;98.75;64.03;;;3.20;99.90;;;;;;4907263;29;20107;-78
2023/01/22 00:11:23;;;;;;;110.70;70.13;;;3.20;99.90;;;;;;4908235;29;20047;-78
2023/01/22 00:13:56;;;;;;;112.03;69.10;;;3.20;1.00;;;;;;4907645;29;20044;-77
2023/01/22 00:16:23;;;;;;;94.85;58.90;;;3.20;43.70;;;;;;4916216;29;20044;-77
2023/01/22 00:18:51;;;;;;;92.80;60.67;;;3.20;39.80;;;;;;4900048;29;20577;-77
2023/01/22 00:21:18;;;;;;;109.07;66.22;;;3.20;99.90;;;;;;4899562;29;20056;-77
2023/01/22 00:23:59;;;;;;;101.85;60.85;;;3.10;1.00;;;;;;4916335;29;20059;-76
2023/01/22 00:26:27;;;;;;;95.70;58.20;;;3.10;99.90;;;;;;4898972;29;20052;-77
2023/01/22 00:28:56;;;;;;;84.28;50.30;;;3.00;95.30;;;;;;4915472;29;20849;-77
2023/01/22 00:31:25;;;;;;;80.47;45.83;;;2.90;1.00;;;;;;4904386;29;20057;-80
2023/01/22 00:33:53;;;;;;;77.70;44.53;;;2.80;1.00;;;;;;4919133;29;20072;-79
2023/01/22 00:36:22;;;;;;;80.47;47.45;;;2.60;1.00;;;;;;4903662;29;20058;-78
2023/01/22 00:38:51;;;;;;;102.45;57.53;;;2.50;1.00;;;;;;4898092;29;20052;-78
2023/01/22 00:41:19;;;;;;;123.10;67.50;;;2.50;1.00;;;;;;4898376;29;20431;-77
2023/01/22 00:43:48;;;;;;;122.32;68.32;;;2.30;1.00;;;;;;4896843;29;20049;-76
2023/01/22 00:46:17;;;;;;;113.57;67.60;;;2.20;99.90;;;;;;4895001;29;20140;-77
2023/01/22 00:48:48;;;;;;;128.90;79.53;;;2.00;99.90;;;;;;4895479;29;20045;-76
2023/01/22 00:51:16;;;;;;;122.82;78.30;;;1.90;99.90;;;;;;4894675;29;20543;-75
2023/01/22 00:53:44;;;;;;;124.43;78.07;;;1.80;99.90;;;;;;4907543;29;20124;-76
2023/01/22 00:56:13;;;;;;;121.00;76.57;;;1.80;99.90;;;;;;4915549;29;20055;-78
2023/01/22 00:58:40;;;;;;;119.70;77.18;;;1.80;99.90;;;;;;4916740;29;20057;-76
2023/01/22 01:01:08;;;;;;;119.68;76.57;;;1.80;99.90;;;;;;4908258;29;20047;-75
2023/01/22 01:03:37;;;;;;;108.88;69.15;;;1.80;99.90;;;;;;4906965;29;20045;-75
2023/01/22 01:06:06;;;;;;;104.35;65.97;;;1.80;99.90;;;;;;4928149;29;20055;-75
2023/01/22 01:08:35;;;;;;;99.22;63.47;;;1.80;99.90;;;;;;4916244;29;20036;-78
2023/01/22 01:11:05;;;;;;;109.70;68.85;;;1.90;99.90;;;;;;4923440;29;20055;-75
2023/01/22 01:13:36;;;;;;;104.43;65.20;;;1.80;99.90;;;;;;4896147;29;20052;-78
2023/01/22 01:16:06;;;;;;;91.72;59.35;;;1.80;99.90;;;;;;4895628;29;20044;-74
2023/01/22 01:18:36;;;;;;;86.82;57.15;;;1.90;99.90;;;;;;4895114;29;20096;-75
2023/01/22 01:21:06;;;;;;;93.07;58.35;;;1.80;99.90;;;;;;4894577;29;20045;-74
2023/01/22 01:23:34;;;;;;;95.30;60.35;;;1.80;99.90;;;;;;4894779;29;20059;-75
2023/01/22 01:26:05;;;;;;;94.18;62.03;;;1.90;99.90;;;;;;4894765;29;20076;-75
2023/01/22 01:28:34;;;;;;;88.28;56.95;;;1.90;99.90;;;;;;4908707;29;20075;-74
2023/01/22 01:31:03;;;;;;;90.90;58.20;;;1.90;99.90;;;;;;4899319;29;20064;-77
2023/01/22 01:33:31;;;;;;;90.40;57.67;;;2.00;99.90;;;;;;4895799;29;20044;-76
2023/01/22 01:36:02;;;;;;;94.75;59.92;;;2.00;99.90;;;;;;4896307;29;20405;-75
2023/01/22 01:38:30;;;;;;;97.72;64.07;;;1.90;99.90;;;;;;4912983;29;20052;-75
2023/01/22 01:40:58;;;;;;;99.30;61.22;;;1.90;99.90;;;;;;4895929;29;20058;-76
2023/01/22 01:43:27;;;;;;;95.70;62.80;;;2.00;99.90;;;;;;4912982;29;20048;-74
2023/01/22 01:45:55;;;;;;;99.78;63.25;;;2.00;99.90;;;;;;4896462;29;20060;-76
2023/01/22 01:48:30;;;;;;;94.63;62.00;;;2.00;99.90;;;;;;4913525;29;20044;-76
2023/01/22 01:51:04;;;;;;;101.43;64.53;;;2.00;99.90;;;;;;4913945;29;20047;-77
2023/01/22 01:53:32;;;;;;;107.10;70.07;;;2.10;99.90;;;;;;4915235;29;20632;-75
2023/01/22 01:56:03;;;;;;;108.22;67.45;;;2.10;99.90;;;;;;4899670;29;20063;-76
2023/01/22 01:58:33;;;;;;;105.88;71.05;;;2.10;99.90;;;;;;4900228;29;20071;-76
2023/01/22 02:01:05;;;;;;;109.10;68.57;;;2.10;99.90;;;;;;4915068;29;20059;-75
2023/01/22 02:03:33;;;;;;;113.13;69.28;;;2.10;99.90;;;;;;4914239;29;20055;-75
2023/01/22 02:06:00;;;;;;;114.82;70.38;;;2.00;99.90;;;;;;4898890;29;20048;-75
2023/01/22 02:08:30;;;;;;;117.82;76.00;;;2.00;99.90;;;;;;4899629;29;20564;-75
2023/01/22 02:10:58;;;;;;;126.50;78.68;;;2.00;99.90;;;;;;4916263;29;20051;-77
2023/01/22 02:13:30;;;;;;;139.30;83.95;;;2.10;99.90;;;;;;4899914;29;20075;-75
2023/01/22 02:15:59;;;;;;;135.85;85.68;;;2.10;99.90;;;;;;4914883;29;20051;-77
2023/01/22 02:18:27;;;;;;;133.23;81.85;;;2.20;99.90;;;;;;4936757;29;20103;-75
2023/01/22 02:20:57;;;;;;;133.63;79.50;;;2.20;99.90;;;;;;4902799;29;20135;-76
2023/01/22 02:23:26;;;;;;;134.98;78.88;;;2.30;99.90;;;;;;4898745;29;20458;-75
2023/01/22 02:25:54;;;;;;;136.65;79.32;;;2.20;99.90;;;;;;4899709;29;20138;-77
2023/01/22 02:28:22;;;;;;;135.93;72.82;;;2.20;99.90;;;;;;4905403;29;20118;-77
2023/01/22 02:30:51;;;;;;;144.82;75.47;;;2.20;99.90;;;;;;4933367;29;20053;-79
2023/01/22 02:33:18;;;;;;;143.30;74.32;;;2.30;99.90;;;;;;4913858;29;20217;-74
2023/01/22 02:35:46;;;;;;;143.35;76.68;;;2.30;99.90;;;;;;4917070;29;20099;-77
2023/01/22 02:38:15;;;;;;;145.98;80.05;;;2.30;99.90;;;;;;4898949;29;20048;-76
2023/01/22 02:40:47;;;;;;;157.35;80.25;;;2.30;99.90;;;;;;4917061;29;20040;-75
2023/01/22 02:43:18;;;;;;;164.23;81.97;;;2.30;99.90;;;;;;4900049;29;20048;-75
2023/01/22 02:45:45;;;;;;;165.00;81.90;;;2.30;99.90;;;;;;4898989;29;20048;-75
2023/01/22 02:48:13;;;;;;;167.75;80.15;;;2.30;99.90;;;;;;4898664;29;20135;-75
2023/01/22 02:50:40;;;;;;;162.13;71.20;;;2.30;99.90;;;;;;4898140;29;20123;-75
2023/01/22 02:53:08;;;;;;;168.18;74.25;;;2.30;99.90;;;;;;4898263;29;20044;-75
2023/01/22 02:55:38;;;;;;;159.88;71.22;;;2.40;99.90;;;;;;4897024;29;20509;-76
2023/01/22 02:58:06;;;;;;;160.10;70.25;;;2.40;99.90;;;;;;4913130;29;20067;-74
2023/01/22 03:00:34;;;;;;;161.32;69.97;;;2.50;99.90;;;;;;4897480;29;20044;-72
2023/01/22 03:03:06;;;;;;;167.20;68.78;;;2.50;99.90;;;;;;4897917;29;20059;-73
2023/01/22 03:05:34;;;;;;;160.45;68.95;;;2.60;99.90;;;;;;4898201;29;20495;-75
2023/01/22 03:08:04;;;;;;;163.45;73.15;;;2.50;99.90;;;;;;4898036;29;20054;-75
2023/01/22 03:10:32;;;;;;;159.23;68.03;;;2.60;99.90;;;;;;4914515;29;20048;-75
2023/01/22 03:21:19;;;;;;;163.32;81.53;;;2.60;99.90;;;;;;4897996;29;20132;-75
2023/01/22 03:23:48;;;;;;;163.18;84.40;;;2.50;99.90;;;;;;4913782;29;20118;-75
2023/01/22 03:26:18;;;;;;;170.40;89.57;;;2.50;99.90;;;;;;4897598;29;20056;-76
2023/01/22 03:28:48;;;;;;;159.20;78.55;;;2.60;99.90;;;;;;4912610;29;20531;-75
2023/01/22 03:31:16;;;;;;;169.00;84.55;;;2.60;99.90;;;;;;4894297;29;20056;-75
2023/01/22 03:33:44;;;;;;;160.77;84.82;;;2.60;99.90;;;;;;4897914;29;20497;-76
2023/01/22 03:36:15;;;;;;;155.80;82.68;;;2.60;99.90;;;;;;4904317;29;20093;-76
2023/01/22 03:38:48;;;;;;;140.23;71.32;;;2.50;99.90;;;;;;4903500;29;20662;-74
2023/01/22 03:41:19;;;;;;;140.95;74.28;;;2.50;99.90;;;;;;4895442;29;20056;-75
2023/01/22 03:43:50;;;;;;;132.48;69.00;;;2.40;99.90;;;;;;4896497;29;20056;-76
2023/01/22 03:46:21;;;;;;;122.82;63.53;;;2.50;99.90;;;;;;4894056;29;20479;-78
2023/01/22 03:48:53;;;;;;;110.43;56.10;;;2.40;99.90;;;;;;4912980;29;20143;-77
2023/01/22 03:51:21;;;;;;;118.72;64.88;;;2.50;99.90;;;;;;4915520;29;20081;-76
2023/01/22 03:53:50;;;;;;;111.20;58.47;;;2.50;99.90;;;;;;4911131;29;20557;-75
2023/01/22 03:56:20;;;;;;;85.65;46.75;;;2.50;99.90;;;;;;4898773;29;20049;-75
2023/01/22 03:58:50;;;;;;;82.65;44.30;;;2.50;99.90;;;;;;4911601;29;20048;-75
2023/01/22 04:01:19;;;;;;;79.15;42.80;;;2.50;99.90;;;;;;4909512;29;20072;-74
2023/01/22 04:03:47;;;;;;;77.97;40.10;;;2.60;99.90;;;;;;4909039;29;20045;-75
2023/01/22 04:06:16;;;;;;;72.57;40.35;;;2.70;99.90;;;;;;4895073;29;20060;-75
2023/01/22 04:08:45;;;;;;;67.65;36.67;;;2.60;99.90;;;;;;4894146;29;20037;-75
2023/01/22 04:11:14;;;;;;;69.15;36.97;;;2.60;99.90;;;;;;4908796;29;20120;-74
2023/01/22 04:13:45;;;;;;;73.70;42.65;;;2.50;99.90;;;;;;4893250;29;20052;-75
2023/01/22 04:16:15;;;;;;;69.78;38.85;;;2.60;99.90;;;;;;4892600;29;20048;-76
2023/01/22 04:19:06;;;;;;;74.43;40.15;;;2.60;99.90;;;;;;4884902;29;20060;-76
2023/01/22 04:21:53;;;;;;;75.18;42.30;;;2.60;99.90;;;;;;4892763;29;20061;-76
2023/01/22 04:24:22;;;;;;;76.18;41.38;;;2.60;99.90;;;;;;4892097;29;20060;-76
2023/01/22 04:26:49;;;;;;;80.97;41.75;;;2.60;99.90;;;;;;4893269;29;20568;-75
2023/01/22 04:29:19;;;;;;;79.20;41.10;;;2.60;99.90;;;;;;4893471;29;20048;-75
2023/01/22 04:31:49;;;;;;;79.35;42.10;;;2.60;99.90;;;;;;4892603;29;20580;-75
2023/01/22 04:34:20;;;;;;;79.40;43.47;;;2.70;99.90;;;;;;4894482;29;20096;-76
2023/01/22 04:37:05;;;;;;;79.32;45.50;;;2.60;99.90;;;;;;4893372;29;20152;-74
2023/01/22 04:39:35;;;;;;;76.43;44.75;;;2.50;99.90;;;;;;4908563;29;20145;-76
2023/01/22 04:42:03;;;;;;;79.80;45.85;;;2.60;99.90;;;;;;4908596;29;20135;-76
2023/01/22 04:44:30;;;;;;;84.63;46.90;;;2.60;99.90;;;;;;4893593;29;20048;-76
2023/01/22 04:46:59;;;;;;;90.72;50.53;;;2.70;99.90;;;;;;4894463;29;20589;-77
2023/01/22 04:49:26;;;;;;;92.95;49.50;;;2.70;99.90;;;;;;4893668;29;20057;-75
2023/01/22 04:51:55;;;;;;;91.78;50.25;;;2.70;99.90;;;;;;4893892;29;20045;-76
2023/01/22 04:54:23;;;;;;;98.63;51.95;;;2.80;99.90;;;;;;4894965;29;20159;-78
2023/01/22 04:56:51;;;;;;;131.82;63.47;;;2.80;99.90;;;;;;4916985;29;20059;-77
2023/01/22 04:59:19;;;;;;;152.25;65.72;;;2.90;99.90;;;;;;4911360;29;20056;-77
2023/01/22 05:01:49;;;;;;;140.40;62.42;;;2.80;99.90;;;;;;4902003;29;20053;-77
2023/01/22 05:04:20;;;;;;;149.05;65.28;;;2.90;99.90;;;;;;4900739;29;20429;-75
2023/01/22 05:06:49;;;;;;;175.38;74.03;;;2.90;99.90;;;;;;4908814;29;20104;-77
2023/01/22 05:09:17;;;;;;;182.00;72.05;;;2.90;99.90;;;;;;4895320;29;20044;-77
2023/01/22 05:11:59;;;;;;;150.98;63.03;;;2.80;99.90;;;;;;4893757;29;20075;-78
2023/01/22 05:14:30;;;;;;;160.60;62.28;;;2.70;99.90;;;;;;4894013;29;20413;-76
2023/01/22 05:16:58;;;;;;;172.68;68.20;;;2.80;99.90;;;;;;4894043;29;20075;-78
2023/01/22 05:19:27;;;;;;;134.00;57.78;;;2.80;99.90;;;;;;4893182;29;20065;-81
2023/01/22 05:21:55;;;;;;;109.03;49.65;;;2.90;99.90;;;;;;4920616;29;20056;-79
2023/01/22 05:24:23;;;;;;;104.13;49.88;;;2.80;99.90;;;;;;4918100;29;20041;-78
2023/01/22 05:26:50;;;;;;;100.50;46.67;;;2.80;99.90;;;;;;4896967;29;20079;-78
2023/01/22 05:29:26;;;;;;;113.75;50.25;;;2.80;99.90;;;;;;4896208;29;20408;-79
2023/01/22 05:32:12;;;;;;;106.53;50.78;;;2.80;99.90;;;;;;4897210;29;20068;-79
2023/01/22 05:34:47;;;;;;;125.00;54.17;;;2.80;99.90;;;;;;4898799;29;20061;-79
2023/01/22 05:37:14;;;;;;;117.32;57.00;;;2.80;99.90;;;;;;4903889;29;20048;-79
2023/01/22 05:39:41;;;;;;;117.15;58.88;;;2.90;99.90;;;;;;4898543;29;20048;-80
2023/01/22 05:42:14;;;;;;;122.15;57.45;;;2.80;99.90;;;;;;4897566;29;20052;-80
2023/01/22 05:44:44;;;;;;;117.93;56.75;;;2.80;99.90;;;;;;4896878;29;20059;-78
2023/01/22 05:47:14;;;;;;;141.02;65.28;;;2.80;99.90;;;;;;4899296;29;20079;-78
2023/01/22 05:49:49;;;;;;;121.70;59.13;;;2.80;99.90;;;;;;4901915;29;20390;-78
2023/01/22 05:52:17;;;;;;;112.70;54.42;;;2.80;99.90;;;;;;4915868;29;20044;-78
2023/01/22 05:54:46;;;;;;;118.43;55.63;;;2.80;99.90;;;;;;4920018;29;20052;-78
2023/01/22 05:57:13;;;;;;;120.45;56.15;;;2.80;99.90;;;;;;4915818;29;20056;-78
2023/01/22 05:59:41;;;;;;;121.65;55.85;;;2.70;99.90;;;;;;4911851;29;20450;-80
2023/01/22 06:02:10;;;;;;;110.32;53.25;;;2.80;99.90;;;;;;4926727;29;20048;-78
2023/01/22 06:04:43;;;;;;;117.60;54.35;;;2.90;99.90;;;;;;4931788;29;20073;-79
2023/01/22 06:07:38;;;;;;;116.45;53.75;;;3.00;99.90;;;;;;4917048;29;20056;-78
2023/01/22 06:10:07;;;;;;;103.63;51.38;;;3.00;99.90;;;;;;4909146;29;20063;-79
2023/01/22 06:12:41;;;;;;;103.35;49.63;;;3.00;99.90;;;;;;4909729;29;20049;-78
2023/01/22 06:15:11;;;;;;;114.40;52.15;;;3.00;99.90;;;;;;4908601;29;20417;-80
2023/01/22 06:17:42;;;;;;;96.25;47.08;;;3.00;99.90;;;;;;4907119;29;20048;-78
2023/01/22 06:20:11;;;;;;;92.70;44.03;;;3.00;99.90;;;;;;4920835;29;20173;-79
2023/01/22 06:22:40;;;;;;;101.65;47.83;;;3.00;99.90;;;;;;4919888;29;20431;-80
2023/01/22 06:25:08;;;;;;;108.90;48.42;;;3.10;99.90;;;;;;4916328;29;20044;-79
2023/01/22 06:28:02;;;;;;;98.68;46.60;;;3.10;99.90;;;;;;4899341;29;20068;-79
2023/01/22 06:30:31;;;;;;;85.20;41.50;;;3.10;99.90;;;;;;4900403;29;20048;-79
2023/01/22 06:33:01;;;;;;;79.65;40.05;;;3.10;99.90;;;;;;4900511;29;20752;-78
2023/01/22 06:35:29;;;;;;;78.28;37.67;;;3.10;99.90;;;;;;4917440;29;20103;-78
2023/01/22 06:37:58;;;;;;;68.63;33.60;;;3.10;99.90;;;;;;4902156;29;20052;-79
2023/01/22 06:40:25;;;;;;;69.32;35.83;;;3.10;99.90;;;;;;4917879;29;20058;-78
2023/01/22 06:42:53;;;;;;;75.70;36.50;;;3.10;99.90;;;;;;4901548;29;20085;-79
2023/01/22 06:45:21;;;;;;;70.47;36.85;;;3.10;99.90;;;;;;4902810;29;20055;-78
2023/01/22 06:47:53;;;;;;;71.60;38.72;;;3.20;99.90;;;;;;4909162;29;20040;-79
2023/01/22 06:50:21;;;;;;;84.70;44.20;;;3.10;99.90;;;;;;4914313;29;20063;-80
2023/01/22 06:52:49;;;;;;;78.30;44.15;;;3.00;99.90;;;;;;4925794;29;20044;-79
2023/01/22 06:55:18;;;;;;;75.43;39.20;;;3.00;99.90;;;;;;4900886;29;20143;-77
2023/01/22 06:57:46;;;;;;;81.90;47.08;;;3.00;99.90;;;;;;4917296;29;20048;-79
2023/01/22 07:00:14;;;;;;;80.88;44.10;;;3.10;99.90;;;;;;4921489;29;20112;-78
2023/01/22 07:02:41;;;;;;;85.85;45.75;;;3.20;99.90;;;;;;4924205;29;20066;-79
2023/01/22 07:05:09;;;;;;;97.07;52.45;;;3.30;99.90;;;;;;4924046;29;20071;-75
2023/01/22 07:07:38;;;;;;;92.03;52.13;;;3.30;99.90;;;;;;4903692;29;20090;-80
2023/01/22 07:10:06;;;;;;;102.88;54.13;;;3.30;99.90;;;;;;4907600;29;20048;-76
2023/01/22 07:12:35;;;;;;;125.90;65.63;;;3.30;99.90;;;;;;4912189;29;20193;-77
2023/01/22 07:15:05;;;;;;;118.75;65.68;;;3.20;99.90;;;;;;4923562;29;20139;-80
2023/01/22 07:17:33;;;;;;;104.00;58.42;;;3.30;99.90;;;;;;4909780;29;20055;-79
2023/01/22 07:20:00;;;;;;;122.65;68.43;;;3.30;99.90;;;;;;4908381;29;20099;-79
2023/01/22 07:22:31;;;;;;;136.70;74.88;;;3.30;99.90;;;;;;4909348;29;20374;-78
2023/01/22 07:24:58;;;;;;;123.38;59.50;;;3.40;99.90;;;;;;4906571;29;20055;-80
2023/01/22 07:27:26;;;;;;;110.30;55.80;;;3.30;99.90;;;;;;4922678;29;20083;-78
2023/01/22 07:29:55;;;;;;;115.03;58.33;;;3.30;88.50;;;;;;4906650;29;20175;-77
2023/01/22 07:32:22;;;;;;;104.45;52.55;;;3.30;1.00;;;;;;4921955;29;20083;-79
2023/01/22 07:34:50;;;;;;;112.63;51.60;;;3.30;1.00;;;;;;4916297;29;20507;-78
2023/01/22 07:37:17;;;;;;;122.82;60.38;;;3.30;1.00;;;;;;4897876;29;20056;-78
2023/01/22 07:39:45;;;;;;;120.57;60.67;;;3.40;1.00;;;;;;4898087;29;20524;-79
2023/01/22 07:42:12;;;;;;;135.18;61.08;;;3.40;99.90;;;;;;4897780;29;20048;-76
2023/01/22 07:44:42;;;;;;;126.88;59.00;;;3.40;1.00;;;;;;4898212;29;20103;-77
2023/01/22 07:47:11;;;;;;;110.50;50.33;;;3.60;1.00;;;;;;4916504;29;20058;-78
2023/01/22 07:49:38;;;;;;;123.43;58.17;;;3.60;99.90;;;;;;4918848;29;20048;-81
2023/01/22 07:52:32;;;;;;;;;;;;;;;;;;;;;
2023/01/22 07:55:04;;;;;;;70.38;30.55;;;3.90;1.00;;;;;;4894824;29;20420;-80
2023/01/22 07:57:31;;;;;;;69.20;29.95;;;4.00;1.00;;;;;;4914022;29;20648;-77
2023/01/22 07:59:59;;;;;;;62.97;33.88;;;4.00;1.00;;;;;;4913617;29;20864;-78
2023/01/22 08:02:27;;;;;;;66.50;34.63;;;4.00;99.90;;;;;;4914638;29;20048;-77
2023/01/22 08:04:55;;;;;;;67.00;36.92;;;4.00;84.10;;;;;;4913895;29;20044;-75
2023/01/22 08:07:23;;;;;;;77.10;39.42;;;4.10;99.90;;;;;;4896376;29;20099;-73
2023/01/22 08:09:51;;;;;;;77.28;39.63;;;4.20;99.90;;;;;;4912818;29;20071;-78
2023/01/22 08:12:20;;;;;;;68.55;34.45;;;4.20;99.90;;;;;;4896242;29;20044;-78
2023/01/22 08:14:47;;;;;;;75.60;39.30;;;4.30;99.90;;;;;;4914417;29;20044;-74
2023/01/22 08:17:15;;;;;;;73.38;38.55;;;4.40;1.00;;;;;;4913235;29;20055;-76
2023/01/22 08:19:44;;;;;;;69.55;35.45;;;4.40;99.90;;;;;;4913797;29;20076;-76
2023/01/22 08:22:12;;;;;;;66.50;35.00;;;4.30;99.90;;;;;;4912143;29;20063;-75
2023/01/22 08:24:41;;;;;;;76.32;36.85;;;4.30;23.70;;;;;;4916710;29;20579;-75
2023/01/22 08:27:08;;;;;;;74.68;37.13;;;4.20;1.00;;;;;;4914884;29;20136;-74
2023/01/22 08:29:36;;;;;;;68.88;36.30;;;4.10;99.90;;;;;;4914266;29;20058;-76
2023/01/22 08:32:03;;;;;;;91.78;48.28;;;4.20;1.00;;;;;;4896435;29;20053;-75
2023/01/22 08:34:31;;;;;;;68.70;38.20;;;4.10;1.00;;;;;;4894476;29;20048;-74
2023/01/22 08:37:00;;;;;;;72.97;36.30;;;4.10;1.00;;;;;;4896486;29;20061;-76
2023/01/22 08:39:27;;;;;;;86.72;44.72;;;4.20;99.90;;;;;;4898606;29;20067;-75
2023/01/22 08:41:56;;;;;;;86.28;44.30;;;4.20;99.90;;;;;;4901327;29;20557;-77
2023/01/22 08:44:24;;;;;;;86.38;43.83;;;4.30;1.00;;;;;;4899681;29;20123;-76
2023/01/22 08:46:52;;;;;;;78.85;39.50;;;4.40;30.00;;;;;;4915318;29;20092;-79
2023/01/22 08:49:21;;;;;;;82.93;41.40;;;4.40;1.00;;;;;;4903334;29;20048;-75
2023/01/22 08:51:49;;;;;;;72.85;37.75;;;4.40;1.00;;;;;;4893150;29;20033;-75
2023/01/22 08:54:18;;;;;;;73.35;38.75;;;4.30;99.90;;;;;;4895736;29;20096;-77
2023/01/22 08:56:46;;;;;;;83.60;44.20;;;4.40;99.90;;;;;;4901184;29;20045;-76
2023/01/22 08:59:14;;;;;;;80.57;43.38;;;4.50;99.90;;;;;;4895741;29;20513;-75
2023/01/22 09:01:42;;;;;;;82.55;41.88;;;4.50;99.90;;;;;;4896731;29;20045;-79
2023/01/22 09:04:24;;;;;;;85.05;42.70;;;4.70;99.90;;;;;;4900936;29;20120;-79
2023/01/22 09:06:53;;;;;;;86.50;43.15;;;4.60;1.00;;;;;;4900270;29;20060;-78
2023/01/22 09:09:22;;;;;;;80.95;42.05;;;4.50;1.00;;;;;;4898735;29;20564;-80
2023/01/22 09:11:51;;;;;;;86.57;45.15;;;4.60;1.00;;;;;;4905317;29;20077;-81
2023/01/22 09:14:19;;;;;;;80.63;41.90;;;4.60;1.00;;;;;;4913943;29;20059;-79
2023/01/22 09:16:46;;;;;;;70.18;36.28;;;4.60;34.20;;;;;;4921695;29;20048;-81
2023/01/22 09:19:14;;;;;;;84.70;41.17;;;4.50;1.00;;;;;;4915107;29;20044;-78
2023/01/22 09:21:41;;;;;;;90.05;41.92;;;4.60;1.00;;;;;;4916179;29;20088;-83
2023/01/22 09:24:16;;;;;;;83.18;38.55;;;4.80;1.00;;;;;;4919786;29;20033;-82
2023/01/22 09:26:51;;;;;;;73.20;37.65;;;5.10;1.00;;;;;;4924740;29;20052;-80
2023/01/22 09:29:18;;;;;;;86.65;38.17;;;5.40;1.00;;;;;;4912525;29;20131;-78
2023/01/22 09:31:46;;;;;;;107.75;51.78;;;5.10;1.00;;;;;;4913184;29;20058;-79
2023/01/22 09:34:17;;;;;;;85.72;42.42;;;5.00;1.00;;;;;;4904188;29;20170;-79
2023/01/22 09:36:44;;;;;;;84.50;40.08;;;4.80;1.00;;;;;;4908925;29;20131;-77
2023/01/22 09:39:16;;;;;;;108.47;52.65;;;4.60;1.00;;;;;;4925698;29;20131;-78
2023/01/22 09:41:47;;;;;;;101.45;54.50;;;4.80;1.00;;;;;;4921764;29;20043;-78
2023/01/22 09:44:21;;;;;;;75.03;37.95;;;4.90;1.00;;;;;;4906680;29;20124;-78
2023/01/22 09:47:14;;;;;;;73.47;38.75;;;5.00;1.00;;;;;;4924919;29;20182;-80
2023/01/22 09:49:52;;;;;;;63.72;33.08;;;5.10;1.00;;;;;;4923701;29;20043;-81
2023/01/22 09:52:19;;;;;;;62.47;32.63;;;5.20;1.00;;;;;;4929892;29;20124;-80
2023/01/22 09:54:48;;;;;;;61.75;33.40;;;5.20;99.90;;;;;;4919127;29;20233;-78
2023/01/22 09:57:16;;;;;;;60.38;32.53;;;5.20;99.90;;;;;;4917241;29;20588;-77
2023/01/22 09:59:48;;;;;;;65.25;34.25;;;5.20;99.90;;;;;;4918005;29;20170;-79
2023/01/22 10:02:25;;;;;;;67.88;36.05;;;5.10;99.90;;;;;;4916928;29;20048;-81
2023/01/22 10:04:57;;;;;;;64.80;31.70;;;5.10;99.90;;;;;;4917063;29;20036;-79
2023/01/22 10:07:30;;;;;;;68.25;36.53;;;5.20;99.90;;;;;;4904373;29;20408;-81
2023/01/22 10:10:07;;;;;;;73.13;37.95;;;5.20;99.90;;;;;;4918346;29;20130;-78
2023/01/22 10:12:34;;;;;;;90.90;45.47;;;5.40;99.90;;;;;;4918403;29;20135;-77
2023/01/22 10:15:03;;;;;;;87.75;40.97;;;5.40;99.90;;;;;;4920804;29;20044;-77
2023/01/22 10:17:34;;;;;;;98.50;47.95;;;5.30;99.90;;;;;;4905779;29;20140;-78
2023/01/22 10:20:04;;;;;;;116.80;54.38;;;5.20;1.00;;;;;;4917714;29;20063;-78
2023/01/22 10:22:32;;;;;;;118.30;55.67;;;5.40;1.00;;;;;;4919252;29;20044;-77
2023/01/22 10:24:59;;;;;;;117.57;57.05;;;5.50;99.90;;;;;;4918462;29;20066;-79
2023/01/22 10:27:35;;;;;;;118.88;54.83;;;5.70;99.90;;;;;;4907634;29;20044;-80
2023/01/22 10:30:07;;;;;;;;;;;5.70;99.90;;;;;;4936984;29;20055;-79
2023/01/22 10:33:16;;;;;;;119.97;56.58;;;5.80;99.90;;;;;;4929434;29;19927;-80
2023/01/22 10:36:02;;;;;;;109.38;52.13;;;5.80;99.90;;;;;;4920452;29;20040;-81
2023/01/22 10:41:49;;;;;;;110.53;53.45;;;6.00;99.90;;;;;;4898894;29;20044;-83
2023/01/22 10:44:23;;;;;;;104.85;52.17;;;5.80;99.90;;;;;;4898832;29;20068;-78
2023/01/22 10:46:53;;;;;;;107.75;53.33;;;5.70;99.90;;;;;;4899620;29;20526;-78
2023/01/22 10:49:22;;;;;;;118.82;57.08;;;5.70;99.90;;;;;;4916016;29;20056;-80
2023/01/22 10:51:54;;;;;;;118.28;56.10;;;5.70;94.80;;;;;;4901038;29;20049;-81
2023/01/22 10:54:26;;;;;;;116.78;57.80;;;5.70;99.90;;;;;;4902518;29;20052;-81
2023/01/22 10:57:05;;;;;;;118.05;55.03;;;5.80;99.90;;;;;;4907649;29;20056;-82
2023/01/22 10:59:33;;;;;;;101.13;54.80;;;5.90;99.90;;;;;;4900988;29;20588;-79
2023/01/22 11:02:11;;;;;;;113.63;56.08;;;6.00;26.50;;;;;;4903098;29;20051;-78
2023/01/22 11:04:38;;;;;;;117.85;57.67;;;5.90;99.90;;;;;;4902334;29;20506;-81
2023/01/22 11:07:09;;;;;;;124.25;56.30;;;5.80;36.50;;;;;;4901401;29;20044;-79
2023/01/22 11:09:42;;;;;;;125.97;60.00;;;5.90;99.90;;;;;;4901370;29;20101;-81
2023/01/22 11:12:16;;;;;;;129.82;62.85;;;6.00;45.70;;;;;;4901808;29;20043;-82
2023/01/22 11:14:48;;;;;;;128.65;60.72;;;5.60;99.90;;;;;;4902034;29;20096;-81
2023/01/22 11:17:22;;;;;;;133.68;63.60;;;5.10;99.90;;;;;;4905950;29;20048;-82
2023/01/22 11:20:02;;;;;;;115.75;54.58;;;5.20;99.90;;;;;;4898885;29;20417;-82
2023/01/22 11:22:36;;;;;;;111.82;56.33;;;5.30;99.90;;;;;;4905579;29;20040;-81
2023/01/22 11:25:09;;;;;;;92.15;51.80;;;5.30;99.90;;;;;;4917100;29;20112;-82
2023/01/22 11:27:52;;;;;;;90.47;49.55;;;5.20;99.90;;;;;;4913792;29;20127;-81
2023/01/22 11:30:46;;;;;;;85.25;46.92;;;5.10;99.90;;;;;;4905357;29;20116;-83
2023/01/22 11:33:29;;;;;;;82.60;48.05;;;5.20;99.90;;;;;;4916385;29;20486;-82
2023/01/22 11:36:05;;;;;;;88.25;49.70;;;5.30;99.90;;;;;;4916962;29;20064;-82
2023/01/22 11:38:43;;;;;;;84.95;49.25;;;5.40;99.90;;;;;;4899142;29;20417;-82
2023/01/22 11:41:33;;;;;;;87.53;52.70;;;5.40;99.90;;;;;;4897760;29;20119;-81
2023/01/22 11:44:39;;;;;;;88.22;49.90;;;5.20;99.90;;;;;;4898816;29;20048;-82
2023/01/22 11:47:29;;;;;;;83.00;48.22;;;5.10;99.90;;;;;;4899335;29;20501;-81
2023/01/22 11:50:18;;;;;;;78.13;49.25;;;5.10;99.90;;;;;;4901186;29;20239;-82
2023/01/22 11:52:51;;;;;;;80.85;47.03;;;5.20;99.90;;;;;;4899741;29;20044;-81
2023/01/22 11:55:42;;;;;;;82.68;48.50;;;5.00;99.90;;;;;;4900706;29;20051;-81
2023/01/22 11:58:17;;;;;;;75.93;46.22;;;4.90;99.90;;;;;;4899776;29;20071;-81
2023/01/22 12:00:52;;;;;;;72.47;44.25;;;4.90;1.00;;;;;;4901697;29;20040;-81
2023/01/22 12:03:55;;;;;;;80.78;49.70;;;4.80;1.00;;;;;;4900186;29;20489;-80
2023/01/22 12:06:51;;;;;;;80.18;50.58;;;4.70;1.00;;;;;;4900048;29;20104;-81
2023/01/22 12:09:24;;;;;;;92.72;54.50;;;4.70;1.00;;;;;;4901096;29;20580;-82
2023/01/22 12:12:07;;;;;;;102.00;55.15;;;4.80;1.00;;;;;;4900845;29;20043;-82
2023/01/22 12:14:49;;;;;;;100.57;55.67;;;4.70;1.00;;;;;;4901100;29;20436;-82
2023/01/22 12:17:34;;;;;;;109.90;52.83;;;4.70;1.00;;;;;;4905243;29;20056;-81
2023/01/22 12:20:43;;;;;;;116.35;53.70;;;4.70;1.00;;;;;;4906109;29;20148;-82
2023/01/22 12:23:17;;;;;;;109.38;54.45;;;4.60;99.90;;;;;;4901259;29;20037;-82
2023/01/22 12:25:52;;;;;;;122.05;55.97;;;4.50;1.00;;;;;;4901446;29;20697;-80
2023/01/22 12:28:27;;;;;;;100.97;50.72;;;4.40;1.00;;;;;;4900708;29;20047;-83
2023/01/22 12:31:02;;;;;;;96.07;52.40;;;4.30;1.00;;;;;;4903896;29;20059;-82
2023/01/22 12:33:33;;;;;;;108.45;54.75;;;4.10;1.00;;;;;;4918302;29;20068;-81
2023/01/22 12:36:05;;;;;;;114.20;58.15;;;4.30;1.00;;;;;;4917556;29;20572;-81
2023/01/22 12:38:41;;;;;;;112.20;60.10;;;4.40;1.00;;;;;;4917499;29;20044;-82
2023/01/22 12:41:31;;;;;;;111.25;57.30;;;4.50;1.00;;;;;;4919672;29;20052;-82
2023/01/22 12:44:03;;;;;;;118.57;55.78;;;4.60;1.00;;;;;;4919624;29;20067;-83
2023/01/22 12:46:46;;;;;;;134.07;63.63;;;4.50;1.00;;;;;;4916997;29;20563;-80
2023/01/22 12:49:15;;;;;;;132.27;64.85;;;4.50;1.00;;;;;;4918928;29;20643;-79
2023/01/22 12:51:45;;;;;;;135.05;63.70;;;4.40;1.00;;;;;;4901675;29;20409;-82
2023/01/22 12:54:23;;;;;;;134.68;65.78;;;4.30;1.00;;;;;;4918967;29;20048;-82
2023/01/22 12:56:55;;;;;;;140.88;63.05;;;4.20;1.00;;;;;;4921247;29;20036;-83
2023/01/22 12:59:41;;;;;;;141.68;65.43;;;4.00;1.00;;;;;;4920093;29;20063;-83
2023/01/22 13:02:34;;;;;;;131.77;59.97;;;3.90;99.90;;;;;;4917864;29;20072;-81
2023/01/22 13:05:20;;;;;;;140.05;64.80;;;4.00;99.90;;;;;;4917692;29;20048;-81
2023/01/22 13:07:48;;;;;;;;;;;4.20;99.90;;;;;;4917792;29;20489;-74
2023/01/22 13:10:28;;;;;;;144.45;67.90;;;4.30;99.90;;;;;;4916660;29;19927;-83